createdAt,value
2023-02-09T00:00:18.785Z,-3.39
2023-02-09T00:02:46.037Z,-3.39
2023-02-09T00:05:13.280Z,-3.42
2023-02-09T00:07:40.587Z,-3.42
2023-02-09T00:10:07.997Z,-3.45
2023-02-09T00:12:56.105Z,-3.50
2023-02-09T00:15:23.240Z,-3.48
2023-02-09T00:17:50.293Z,-3.52
2023-02-09T00:20:17.472Z,-3.58
2023-02-09T00:22:44.591Z,-3.63
2023-02-09T00:25:11.662Z,-3.61
2023-02-09T00:27:38.847Z,-3.58
2023-02-09T00:30:06.476Z,-3.61
2023-02-09T00:32:33.643Z,-3.63
2023-02-09T00:35:00.903Z,-3.64
2023-02-09T00:37:28.740Z,-3.64
2023-02-09T00:39:55.852Z,-3.63
2023-02-09T00:42:22.973Z,-3.67
2023-02-09T00:44:50.380Z,-3.65
2023-02-09T00:47:17.621Z,-3.68
2023-02-09T00:49:44.845Z,-3.68
2023-02-09T00:52:11.994Z,-3.74
2023-02-09T00:54:39.278Z,-3.68
2023-02-09T00:57:06.493Z,-3.83
2023-02-09T00:59:35.532Z,-3.76
2023-02-09T01:02:03.664Z,-3.78
2023-02-09T01:04:30.909Z,-3.82
2023-02-09T01:06:58.218Z,-3.88
2023-02-09T01:09:25.627Z,-3.91
2023-02-09T01:11:52.747Z,-3.91
2023-02-09T01:14:19.999Z,-3.88
2023-02-09T01:16:47.109Z,-3.89
2023-02-09T01:19:14.523Z,-3.92
2023-02-09T01:21:42.132Z,-3.84
2023-02-09T01:24:13.219Z,-3.89
2023-02-09T01:26:41.300Z,-3.88
2023-02-09T01:29:08.856Z,-3.92
2023-02-09T01:31:36.346Z,-3.92
2023-02-09T01:34:04.617Z,-3.95
2023-02-09T01:36:33.015Z,-3.99
2023-02-09T01:39:01.948Z,-4.05
2023-02-09T01:41:29.841Z,-4.05
2023-02-09T01:44:19.382Z,-4.09
2023-02-09T01:46:46.847Z,-4.11
2023-02-09T01:49:16.543Z,-4.16
2023-02-09T01:51:47.055Z,-4.19
2023-02-09T01:54:19.142Z,-4.32
2023-02-09T01:56:52.506Z,-4.27
2023-02-09T01:59:20.251Z,-4.52
2023-02-09T02:01:47.825Z,-4.35
2023-02-09T02:04:17.053Z,-4.65
2023-02-09T02:06:44.203Z,-4.42
2023-02-09T02:09:16.951Z,-4.43
2023-02-09T02:11:47.606Z,-4.37
2023-02-09T02:14:36.130Z,-4.37
2023-02-09T02:17:21.288Z,-4.39
2023-02-09T02:20:07.123Z,-4.40
2023-02-09T02:22:41.734Z,-4.39
2023-02-09T02:25:43.014Z,-4.41
2023-02-09T02:28:34.845Z,-4.41
2023-02-09T02:31:26.363Z,-4.41
2023-02-09T02:33:59.214Z,-4.44
2023-02-09T02:36:41.164Z,-4.47
2023-02-09T02:39:26.391Z,-4.45
2023-02-09T02:42:21.083Z,-4.49
2023-02-09T02:45:22.404Z,-4.49
2023-02-09T02:48:24.961Z,-4.52
2023-02-09T02:51:17.251Z,-4.53
2023-02-09T02:53:50.019Z,-4.44
2023-02-09T02:56:24.450Z,-4.47
2023-02-09T02:58:55.020Z,-4.41
2023-02-09T03:01:26.780Z,-4.29
2023-02-09T03:03:57.536Z,-4.24
2023-02-09T03:06:24.763Z,-4.21
2023-02-09T03:08:55.174Z,-4.22
2023-02-09T03:11:25.185Z,-4.18
2023-02-09T03:14:01.186Z,-4.17
2023-02-09T03:16:40.616Z,-4.15
2023-02-09T03:19:25.611Z,-4.15
2023-02-09T03:22:19.941Z,-4.19
2023-02-09T03:24:55.601Z,-4.20
2023-02-09T03:27:27.667Z,-4.19
2023-02-09T03:29:59.350Z,-4.11
2023-02-09T03:32:27.341Z,-4.11
2023-02-09T03:34:55.778Z,-4.10
2023-02-09T03:37:23.594Z,-4.05
2023-02-09T03:39:50.850Z,-4.02
2023-02-09T03:42:17.893Z,-3.99
2023-02-09T03:44:45.119Z,-4.08
2023-02-09T03:47:12.187Z,-4.04
2023-02-09T03:49:41.682Z,-4.04
2023-02-09T03:52:11.579Z,-3.91
2023-02-09T03:54:38.626Z,-3.90
2023-02-09T03:57:06.690Z,-3.87
2023-02-09T03:59:37.919Z,-3.87
2023-02-09T04:02:08.137Z,-3.84
2023-02-09T04:04:36.203Z,-3.81
2023-02-09T04:07:04.082Z,-3.79
2023-02-09T04:09:31.156Z,-3.77
2023-02-09T04:11:58.278Z,-3.74
2023-02-09T04:14:25.418Z,-3.78
2023-02-09T04:16:52.573Z,-3.73
2023-02-09T04:19:19.622Z,-3.68
2023-02-09T04:21:46.816Z,-3.64
2023-02-09T04:24:14.017Z,-3.61
2023-02-09T04:26:41.198Z,-3.62
2023-02-09T04:29:08.630Z,-3.57
2023-02-09T04:31:35.960Z,-3.57
2023-02-09T04:34:03.053Z,-3.52
2023-02-09T04:36:30.267Z,-3.62
2023-02-09T04:38:57.360Z,-3.55
2023-02-09T04:41:24.579Z,-3.46
2023-02-09T04:43:51.801Z,-3.44
2023-02-09T04:46:19.378Z,-3.43
2023-02-09T04:48:46.978Z,-3.43
2023-02-09T04:51:14.315Z,-3.44
2023-02-09T04:53:41.860Z,-3.43
2023-02-09T04:56:09.643Z,-3.52
2023-02-09T04:58:55.089Z,-3.46
2023-02-09T05:01:24.477Z,-3.67
2023-02-09T05:03:52.629Z,-3.45
2023-02-09T05:06:19.905Z,-3.47
2023-02-09T05:08:47.207Z,-3.48
2023-02-09T05:11:14.600Z,-3.48
2023-02-09T05:13:41.936Z,-3.50
2023-02-09T05:16:12.661Z,-3.54
2023-02-09T05:18:39.845Z,-3.57
2023-02-09T05:21:06.917Z,-3.60
2023-02-09T05:23:34.149Z,-3.74
2023-02-09T05:26:01.245Z,-3.72
2023-02-09T05:28:28.529Z,-3.71
2023-02-09T05:30:55.774Z,-3.81
2023-02-09T05:33:24.868Z,-3.87
2023-02-09T05:35:53.765Z,-3.96
2023-02-09T05:38:20.881Z,-3.97
2023-02-09T05:40:48.260Z,-4.01
2023-02-09T05:43:15.502Z,-4.07
2023-02-09T05:45:42.642Z,-4.10
2023-02-09T05:48:09.697Z,-4.11
2023-02-09T05:50:37.339Z,-4.13
2023-02-09T05:53:08.304Z,-4.15
2023-02-09T05:55:35.579Z,-4.18
2023-02-09T05:58:02.750Z,-4.21
2023-02-09T06:00:30.143Z,-4.23
2023-02-09T06:02:57.482Z,-4.25
2023-02-09T06:05:25.250Z,-4.30
2023-02-09T06:07:52.559Z,-4.29
2023-02-09T06:10:20.211Z,-4.35
2023-02-09T06:12:47.759Z,-4.46
2023-02-09T06:15:18.849Z,-4.46
2023-02-09T06:17:46.561Z,-4.51
2023-02-09T06:20:13.785Z,-4.56
2023-02-09T06:22:40.928Z,-4.69
2023-02-09T06:25:08.242Z,-4.64
2023-02-09T06:27:36.199Z,-4.72
2023-02-09T06:30:03.857Z,-4.80
2023-02-09T06:32:30.978Z,-4.76
2023-02-09T06:34:58.120Z,-4.78
2023-02-09T06:37:25.331Z,-4.78
2023-02-09T06:39:52.455Z,-4.77
2023-02-09T06:42:19.592Z,-4.81
2023-02-09T06:44:46.809Z,-4.81
2023-02-09T06:47:13.944Z,-4.78
2023-02-09T06:49:41.078Z,-4.74
2023-02-09T06:52:08.390Z,-4.99
2023-02-09T06:54:35.467Z,-4.69
2023-02-09T06:57:02.556Z,-4.61
2023-02-09T06:59:29.658Z,-4.71
2023-02-09T07:01:56.869Z,-4.55
2023-02-09T07:04:23.890Z,-4.58
2023-02-09T07:06:50.928Z,-4.52
2023-02-09T07:09:17.990Z,-4.56
2023-02-09T07:11:45.159Z,-4.44
2023-02-09T07:14:12.336Z,-4.63
2023-02-09T07:16:39.551Z,-4.43
2023-02-09T07:19:06.730Z,-4.36
2023-02-09T07:21:33.978Z,-4.36
2023-02-09T07:24:01.102Z,-4.27
2023-02-09T07:26:28.237Z,-4.22
2023-02-09T07:28:55.272Z,-4.17
2023-02-09T07:31:22.541Z,-4.19
2023-02-09T07:33:49.713Z,-4.25
2023-02-09T07:36:17.315Z,-4.12
2023-02-09T07:38:45.655Z,-4.05
2023-02-09T07:41:18.369Z,-3.96
2023-02-09T07:43:46.816Z,-3.91
2023-02-09T07:46:19.132Z,-3.84
2023-02-09T07:48:46.303Z,-3.80
2023-02-09T07:51:16.221Z,-3.76
2023-02-09T07:53:43.663Z,-3.69
2023-02-09T07:56:10.747Z,-3.64
2023-02-09T07:58:37.965Z,-3.59
2023-02-09T08:01:07.631Z,-3.50
2023-02-09T08:03:39.323Z,-3.47
2023-02-09T08:06:26.015Z,-3.31
2023-02-09T08:08:57.600Z,-3.22
2023-02-09T08:11:28.767Z,-3.16
2023-02-09T08:13:57.866Z,-3.04
2023-02-09T08:16:30.562Z,-2.85
2023-02-09T08:19:02.126Z,-2.73
2023-02-09T08:21:34.150Z,-2.73
2023-02-09T08:24:01.735Z,-2.40
2023-02-09T08:26:30.169Z,-2.15
2023-02-09T08:28:58.279Z,-1.91
2023-02-09T08:31:25.492Z,-1.67
2023-02-09T08:33:52.959Z,-1.50
2023-02-09T08:36:21.290Z,-1.24
2023-02-09T08:38:48.543Z,-1.00
2023-02-09T08:41:17.237Z,-0.79
2023-02-09T08:43:51.826Z,-0.57
2023-02-09T08:46:19.310Z,-0.35
2023-02-09T08:48:47.744Z,-0.20
2023-02-09T08:51:17.862Z,-0.09
2023-02-09T08:53:52.435Z,0.02
2023-02-09T08:56:21.391Z,0.22
2023-02-09T08:58:50.376Z,0.33
2023-02-09T09:01:17.603Z,0.47
2023-02-09T09:03:44.887Z,0.57
2023-02-09T09:06:12.555Z,0.66
2023-02-09T09:08:40.777Z,0.79
2023-02-09T09:11:13.136Z,0.94
2023-02-09T09:13:42.090Z,1.00
2023-02-09T09:16:21.176Z,0.93
2023-02-09T09:18:49.250Z,1.14
2023-02-09T09:21:18.652Z,1.08
2023-02-09T09:23:46.804Z,1.12
2023-02-09T09:26:17.739Z,1.21
2023-02-09T09:28:44.893Z,1.28
2023-02-09T09:31:15.628Z,1.31
2023-02-09T09:33:43.285Z,1.32
2023-02-09T09:36:12.108Z,1.25
2023-02-09T09:38:39.770Z,1.19
2023-02-09T09:41:21.083Z,1.22
2023-02-09T09:43:49.014Z,1.25
2023-02-09T09:46:21.346Z,1.28
2023-02-09T09:48:52.768Z,1.23
2023-02-09T09:51:28.963Z,1.29
2023-02-09T09:53:59.649Z,1.27
2023-02-09T09:56:30.660Z,1.26
2023-02-09T09:58:59.537Z,1.10
2023-02-09T10:01:29.040Z,1.27
2023-02-09T10:04:02.721Z,1.32
2023-02-09T10:06:34.232Z,1.35
2023-02-09T10:09:12.429Z,1.33
2023-02-09T10:11:48.498Z,1.43
2023-02-09T10:14:16.264Z,1.48
2023-02-09T10:16:45.020Z,1.51
2023-02-09T10:19:21.701Z,1.43
2023-02-09T10:21:49.679Z,1.39
2023-02-09T10:24:32.101Z,1.42
2023-02-09T10:27:22.326Z,1.49
2023-02-09T10:29:49.253Z,1.51
2023-02-09T10:32:21.370Z,1.52
2023-02-09T10:34:51.925Z,1.48
2023-02-09T10:37:21.820Z,1.55
2023-02-09T10:40:25.817Z,1.55
2023-02-09T10:43:01.795Z,1.63
2023-02-09T10:45:37.605Z,1.69
2023-02-09T10:48:13.647Z,1.74
2023-02-09T10:51:00.153Z,1.78
2023-02-09T10:53:29.945Z,1.82
2023-02-09T10:56:21.347Z,1.88
2023-02-09T10:59:04.758Z,1.94
2023-02-09T11:01:42.187Z,1.84
2023-02-09T11:04:27.657Z,1.95
2023-02-09T11:06:59.138Z,2.01
2023-02-09T11:09:39.474Z,2.07
2023-02-09T11:12:11.446Z,2.16
2023-02-09T11:14:38.932Z,2.21
2023-02-09T11:17:19.754Z,2.24
2023-02-09T11:20:31.035Z,2.27
2023-02-09T11:23:26.109Z,2.28
2023-02-09T11:26:28.822Z,2.34
2023-02-09T11:29:34.386Z,2.41
2023-02-09T11:32:04.232Z,2.49
2023-02-09T11:34:37.107Z,2.50
2023-02-09T11:37:38.112Z,2.49
2023-02-09T11:40:08.095Z,2.39
2023-02-09T11:42:57.335Z,2.35
2023-02-09T11:45:44.836Z,2.42
2023-02-09T11:48:28.692Z,2.51
2023-02-09T11:51:11.983Z,2.59
2023-02-09T11:53:51.499Z,2.57
2023-02-09T11:56:21.389Z,2.60
2023-02-09T11:58:57.439Z,2.64
2023-02-09T12:01:47.556Z,2.69
2023-02-09T12:04:20.490Z,2.78
2023-02-09T12:06:56.524Z,2.87
2023-02-09T12:09:42.370Z,2.95
2023-02-09T12:12:15.581Z,3.02
2023-02-09T12:14:54.499Z,3.04
2023-02-09T12:17:25.537Z,2.93
2023-02-09T12:20:02.874Z,2.83
2023-02-09T12:22:35.841Z,2.80
2023-02-09T12:25:12.398Z,2.82
2023-02-09T12:27:47.286Z,2.83
2023-02-09T12:30:40.686Z,2.87
2023-02-09T12:33:25.161Z,2.96
2023-02-09T12:36:05.789Z,3.04
2023-02-09T12:38:54.678Z,3.13
2023-02-09T12:41:24.621Z,3.16
2023-02-09T12:44:25.285Z,3.25
2023-02-09T12:46:55.891Z,3.24
2023-02-09T12:49:28.579Z,3.37
2023-02-09T12:52:01.565Z,3.43
2023-02-09T12:54:31.720Z,3.44
2023-02-09T12:57:17.061Z,3.51
2023-02-09T12:59:50.687Z,3.47
2023-02-09T13:02:33.367Z,3.44
2023-02-09T13:05:12.621Z,3.38
2023-02-09T13:07:54.848Z,3.32
2023-02-09T13:10:22.156Z,3.22
2023-02-09T13:12:58.949Z,3.10
2023-02-09T13:15:33.742Z,2.93
2023-02-09T13:18:16.431Z,2.79
2023-02-09T13:21:08.062Z,2.54
2023-02-09T13:23:53.608Z,2.35
2023-02-09T13:26:26.962Z,2.27
2023-02-09T13:29:21.449Z,2.14
2023-02-09T13:32:13.595Z,2.04
2023-02-09T13:34:53.859Z,1.97
2023-02-09T13:37:30.016Z,1.95
2023-02-09T13:40:03.089Z,1.95
2023-02-09T13:42:35.375Z,2.00
2023-02-09T13:45:02.693Z,2.07
2023-02-09T13:47:29.973Z,2.14
2023-02-09T13:50:13.404Z,2.21
2023-02-09T13:52:40.500Z,2.25
2023-02-09T13:55:17.374Z,2.30
2023-02-09T13:58:07.305Z,2.32
2023-02-09T14:00:45.924Z,2.37
2023-02-09T14:03:18.793Z,2.39
2023-02-09T14:05:57.914Z,2.40
2023-02-09T14:08:26.943Z,2.41
2023-02-09T14:11:41.179Z,2.39
2023-02-09T14:14:52.486Z,2.39
2023-02-09T14:17:35.841Z,2.35
2023-02-09T14:20:03.658Z,2.33
2023-02-09T14:22:34.067Z,2.36
2023-02-09T14:25:06.129Z,2.34
2023-02-09T14:27:39.365Z,2.33
2023-02-09T14:30:19.053Z,2.32
2023-02-09T14:32:48.577Z,2.33
2023-02-09T14:35:20.080Z,2.24
2023-02-09T14:37:48.776Z,2.30
2023-02-09T14:40:21.481Z,2.28
2023-02-09T14:43:22.257Z,2.15
2023-02-09T14:45:59.063Z,2.22
2023-02-09T14:48:28.878Z,2.20
2023-02-09T14:50:59.840Z,2.13
2023-02-09T14:53:30.072Z,2.08
2023-02-09T14:55:57.992Z,2.03
2023-02-09T14:58:28.172Z,1.97
2023-02-09T15:00:56.125Z,1.94
2023-02-09T15:03:24.222Z,1.88
2023-02-09T15:05:59.137Z,1.89
2023-02-09T15:08:28.843Z,1.89
2023-02-09T15:10:59.521Z,1.86
2023-02-09T15:13:30.515Z,1.82
2023-02-09T15:15:57.750Z,1.76
2023-02-09T15:18:27.027Z,1.74
2023-02-09T15:20:54.414Z,1.67
2023-02-09T15:23:21.622Z,1.66
2023-02-09T15:25:48.932Z,1.62
2023-02-09T15:28:28.828Z,1.59
2023-02-09T15:30:57.781Z,1.53
2023-02-09T15:33:26.997Z,1.49
2023-02-09T15:35:54.700Z,1.46
2023-02-09T15:38:22.041Z,1.40
2023-02-09T15:41:08.933Z,1.39
2023-02-09T15:43:54.751Z,1.33
2023-02-09T15:46:40.707Z,1.30
2023-02-09T15:49:07.939Z,1.25
2023-02-09T15:51:37.965Z,1.21
2023-02-09T15:54:15.739Z,1.17
2023-02-09T15:56:43.216Z,1.13
2023-02-09T15:59:19.228Z,1.09
2023-02-09T16:01:46.510Z,1.05
2023-02-09T16:04:14.765Z,1.02
2023-02-09T16:06:51.914Z,0.93
2023-02-09T16:09:26.952Z,0.93
2023-02-09T16:11:54.284Z,0.94
2023-02-09T16:14:23.640Z,0.89
2023-02-09T16:16:51.659Z,0.83
2023-02-09T16:19:21.591Z,0.84
2023-02-09T16:21:56.615Z,0.82
2023-02-09T16:24:31.795Z,0.74
2023-02-09T16:27:04.853Z,0.69
2023-02-09T16:29:31.957Z,0.73
2023-02-09T16:31:58.991Z,0.70
2023-02-09T16:34:26.110Z,0.68
2023-02-09T16:36:53.197Z,0.65
2023-02-09T16:39:22.475Z,0.62
2023-02-09T16:41:52.921Z,0.58
2023-02-09T16:44:26.022Z,0.58
2023-02-09T16:46:56.102Z,0.54
2023-02-09T16:49:37.027Z,0.50
2023-02-09T16:52:12.870Z,0.46
2023-02-09T16:54:45.867Z,0.37
2023-02-09T16:57:16.220Z,0.42
2023-02-09T16:59:43.995Z,0.39
2023-02-09T17:02:37.163Z,0.33
2023-02-09T17:05:20.265Z,0.30
2023-02-09T17:07:54.819Z,0.27
2023-02-09T17:10:27.478Z,0.21
2023-02-09T17:12:54.612Z,0.16
2023-02-09T17:15:30.564Z,0.21
2023-02-09T17:18:04.179Z,0.20
2023-02-09T17:20:42.687Z,0.20
2023-02-09T17:23:23.322Z,0.18
2023-02-09T17:25:51.833Z,0.19
2023-02-09T17:28:19.651Z,0.20
2023-02-09T17:30:48.179Z,0.22
2023-02-09T17:33:27.101Z,0.23
2023-02-09T17:36:24.158Z,0.25
2023-02-09T17:38:44.818Z,0.24
2023-02-09T17:41:15.135Z,0.25
2023-02-09T17:43:42.910Z,0.25
2023-02-09T17:46:16.572Z,0.26
2023-02-09T17:48:43.735Z,0.28
2023-02-09T17:51:20.305Z,0.27
2023-02-09T17:53:47.772Z,0.28
2023-02-09T17:56:16.722Z,0.32
2023-02-09T17:58:44.737Z,0.28
2023-02-09T18:01:28.578Z,0.34
2023-02-09T18:03:57.553Z,0.33
2023-02-09T18:06:42.703Z,0.28
2023-02-09T18:09:14.837Z,0.35
2023-02-09T18:11:45.072Z,0.36
2023-02-09T18:14:16.702Z,0.38
2023-02-09T18:16:44.909Z,0.38
2023-02-09T18:19:12.939Z,0.41
2023-02-09T18:21:53.490Z,0.41
2023-02-09T18:24:22.864Z,0.44
2023-02-09T18:26:51.318Z,0.46
2023-02-09T18:29:20.359Z,0.46
2023-02-09T18:31:47.489Z,0.43
2023-02-09T18:34:15.726Z,0.46
2023-02-09T18:36:43.016Z,0.47
2023-02-09T18:39:10.263Z,0.49
2023-02-09T18:41:37.329Z,0.48
2023-02-09T18:44:04.339Z,0.49
2023-02-09T18:46:34.379Z,0.49
2023-02-09T18:49:03.504Z,0.49
2023-02-09T18:51:31.516Z,0.49
2023-02-09T18:53:59.168Z,0.49
2023-02-09T18:56:28.598Z,0.49
2023-02-09T18:58:55.815Z,0.49
2023-02-09T19:01:24.583Z,0.50
2023-02-09T19:03:54.400Z,0.52
2023-02-09T19:06:22.253Z,0.51
2023-02-09T19:08:50.758Z,0.56
2023-02-09T19:11:21.658Z,0.59
2023-02-09T19:14:07.681Z,0.58
2023-02-09T19:16:38.069Z,0.62
2023-02-09T19:19:06.374Z,0.65
2023-02-09T19:21:34.929Z,0.65
2023-02-09T19:24:03.851Z,0.65
2023-02-09T19:26:31.334Z,0.65
2023-02-09T19:28:59.517Z,0.65
2023-02-09T19:31:31.713Z,0.64
2023-02-09T19:33:59.699Z,0.66
2023-02-09T19:36:28.203Z,0.64
2023-02-09T19:38:58.689Z,0.62
2023-02-09T19:41:27.470Z,0.63
2023-02-09T19:43:57.977Z,0.57
2023-02-09T19:46:26.814Z,0.50
2023-02-09T19:48:54.151Z,0.56
2023-02-09T19:51:21.869Z,0.55
2023-02-09T19:53:49.196Z,0.52
2023-02-09T19:56:19.669Z,0.52
2023-02-09T19:58:47.166Z,0.44
2023-02-09T20:01:14.382Z,0.48
2023-02-09T20:03:41.622Z,0.46
2023-02-09T20:06:10.840Z,0.47
2023-02-09T20:08:38.452Z,0.46
2023-02-09T20:11:15.502Z,0.44
2023-02-09T20:13:42.742Z,0.44
2023-02-09T20:16:19.231Z,0.43
2023-02-09T20:18:49.077Z,0.41
2023-02-09T20:21:18.205Z,0.39
2023-02-09T20:23:46.798Z,0.38
2023-02-09T20:26:22.837Z,0.33
2023-02-09T20:28:50.373Z,0.35
2023-02-09T20:31:23.313Z,0.34
2023-02-09T20:33:50.522Z,0.33
2023-02-09T20:36:18.780Z,0.27
2023-02-09T20:38:46.748Z,0.33
2023-02-09T20:41:17.801Z,0.31
2023-02-09T20:44:04.381Z,0.29
2023-02-09T20:46:52.045Z,0.32
2023-02-09T20:49:19.521Z,0.34
2023-02-09T20:51:47.419Z,0.30
2023-02-09T20:54:15.622Z,0.31
2023-02-09T20:56:43.759Z,0.28
2023-02-09T20:59:12.742Z,0.32
2023-02-09T21:01:40.431Z,0.31
2023-02-09T21:04:08.761Z,0.29
2023-02-09T21:06:37.793Z,0.25
2023-02-09T21:09:09.036Z,0.26
2023-02-09T21:11:36.307Z,0.23
2023-02-09T21:14:03.412Z,0.25
2023-02-09T21:16:31.080Z,0.19
2023-02-09T21:18:59.184Z,0.20
2023-02-09T21:21:27.343Z,0.18
2023-02-09T21:23:54.805Z,0.15
2023-02-09T21:26:25.361Z,0.10
2023-02-09T21:28:57.891Z,0.10
2023-02-09T21:31:27.590Z,0.08
2023-02-09T21:33:55.069Z,0.01
2023-02-09T21:36:22.218Z,0.05
2023-02-09T21:38:49.491Z,0.01
2023-02-09T21:41:40.578Z,-0.03
2023-02-09T21:44:12.853Z,-0.06
2023-02-09T21:46:39.967Z,-0.06
2023-02-09T21:49:07.935Z,-0.14
2023-02-09T21:51:35.445Z,-0.16
2023-02-09T21:54:02.708Z,-0.19
2023-02-09T21:56:29.787Z,-0.26
2023-02-09T21:58:57.029Z,-0.19
2023-02-09T22:01:24.185Z,-0.22
2023-02-09T22:03:57.395Z,-0.24
2023-02-09T22:06:25.723Z,-0.27
2023-02-09T22:08:53.013Z,-0.28
2023-02-09T22:11:20.111Z,-0.29
2023-02-09T22:13:47.212Z,-0.29
2023-02-09T22:16:20.020Z,-0.31
2023-02-09T22:18:47.189Z,-0.33
2023-02-09T22:21:14.277Z,-0.32
2023-02-09T22:23:41.446Z,-0.32
2023-02-09T22:26:08.597Z,-0.34
2023-02-09T22:28:36.514Z,-0.34
2023-02-09T22:31:08.692Z,-0.36
2023-02-09T22:33:36.571Z,-0.40
2023-02-09T22:36:18.518Z,-0.39
2023-02-09T22:38:45.705Z,-0.38
2023-02-09T22:41:23.886Z,-0.39
2023-02-09T22:44:01.420Z,-0.41
2023-02-09T22:46:35.408Z,-0.43
2023-02-09T22:49:06.102Z,-0.46
2023-02-09T22:51:34.715Z,-0.46
2023-02-09T22:54:02.887Z,-0.51
2023-02-09T22:56:31.077Z,-0.50
2023-02-09T22:58:59.618Z,-0.45
2023-02-09T23:01:28.418Z,-0.46
2023-02-09T23:03:55.756Z,-0.47
2023-02-09T23:06:27.320Z,-0.49
2023-02-09T23:08:59.725Z,-0.51
2023-02-09T23:11:27.244Z,-0.50
2023-02-09T23:14:08.426Z,-0.51
2023-02-09T23:16:37.545Z,-0.54
2023-02-09T23:19:07.426Z,-0.54
2023-02-09T23:21:38.992Z,-0.52
2023-02-09T23:24:07.417Z,-0.57
2023-02-09T23:26:35.476Z,-0.55
2023-02-09T23:29:05.691Z,-0.56
2023-02-09T23:31:32.867Z,-0.62
2023-02-09T23:34:00.055Z,-0.62
2023-02-09T23:36:29.815Z,-0.62
2023-02-09T23:39:00.225Z,-0.64
2023-02-09T23:41:28.069Z,-0.65
2023-02-09T23:43:56.238Z,-0.65
2023-02-09T23:46:27.978Z,-0.68
2023-02-09T23:48:56.205Z,-0.70
2023-02-09T23:51:32.193Z,-0.70
2023-02-09T23:54:03.745Z,-0.74
2023-02-09T23:56:37.032Z,-0.76
2023-02-09T23:59:07.712Z,-0.77
